sensor_id;sensor_type;location;lat;lon;timestamp;P1;durP1;ratioP1;P2;durP2;ratioP2
84666;SDS011;74896;42.518;23.712;2024-02-14T00:00:57;9.85;;;5.38;;
84666;SDS011;74896;42.518;23.712;2024-02-14T00:03:23;8.57;;;4.43;;
84666;SDS011;74896;42.518;23.712;2024-02-14T00:05:49;15.35;;;6.75;;
84666;SDS011;74896;42.518;23.712;2024-02-14T00:08:14;11.23;;;5.50;;
84666;SDS011;74896;42.518;23.712;2024-02-14T00:10:40;11.13;;;5.22;;
84666;SDS011;74896;42.518;23.712;2024-02-14T00:13:05;11.68;;;5.85;;
84666;SDS011;74896;42.518;23.712;2024-02-14T00:15:31;10.80;;;5.68;;
84666;SDS011;74896;42.518;23.712;2024-02-14T00:17:56;10.80;;;5.13;;
84666;SDS011;74896;42.518;23.712;2024-02-14T00:20:21;11.45;;;5.10;;
84666;SDS011;74896;42.518;23.712;2024-02-14T00:22:47;13.32;;;6.50;;
84666;SDS011;74896;42.518;23.712;2024-02-14T00:25:13;13.43;;;5.85;;
84666;SDS011;74896;42.518;23.712;2024-02-14T00:27:38;9.95;;;4.95;;
84666;SDS011;74896;42.518;23.712;2024-02-14T00:30:05;11.95;;;6.57;;
84666;SDS011;74896;42.518;23.712;2024-02-14T00:32:31;9.00;;;4.68;;
84666;SDS011;74896;42.518;23.712;2024-02-14T00:34:58;10.02;;;5.93;;
84666;SDS011;74896;42.518;23.712;2024-02-14T00:37:24;8.20;;;4.85;;
84666;SDS011;74896;42.518;23.712;2024-02-14T00:39:49;9.55;;;5.40;;
84666;SDS011;74896;42.518;23.712;2024-02-14T00:42:16;12.32;;;5.22;;
84666;SDS011;74896;42.518;23.712;2024-02-14T00:44:42;11.98;;;5.50;;
84666;SDS011;74896;42.518;23.712;2024-02-14T00:47:07;11.68;;;5.50;;
84666;SDS011;74896;42.518;23.712;2024-02-14T00:49:36;10.38;;;4.78;;
84666;SDS011;74896;42.518;23.712;2024-02-14T00:52:02;12.10;;;6.38;;
84666;SDS011;74896;42.518;23.712;2024-02-14T00:54:28;8.65;;;4.65;;
84666;SDS011;74896;42.518;23.712;2024-02-14T00:56:53;10.60;;;5.63;;
84666;SDS011;74896;42.518;23.712;2024-02-14T00:59:19;9.98;;;5.60;;
84666;SDS011;74896;42.518;23.712;2024-02-14T01:01:44;9.00;;;5.63;;
84666;SDS011;74896;42.518;23.712;2024-02-14T01:04:10;10.88;;;6.07;;
84666;SDS011;74896;42.518;23.712;2024-02-14T01:06:35;11.45;;;6.05;;
84666;SDS011;74896;42.518;23.712;2024-02-14T01:09:00;12.23;;;6.00;;
84666;SDS011;74896;42.518;23.712;2024-02-14T01:11:26;11.85;;;6.10;;
84666;SDS011;74896;42.518;23.712;2024-02-14T01:13:51;13.20;;;6.78;;
84666;SDS011;74896;42.518;23.712;2024-02-14T01:16:17;11.45;;;6.05;;
84666;SDS011;74896;42.518;23.712;2024-02-14T01:18:43;8.77;;;4.82;;
84666;SDS011;74896;42.518;23.712;2024-02-14T01:21:08;12.48;;;6.70;;
84666;SDS011;74896;42.518;23.712;2024-02-14T01:23:34;10.23;;;5.70;;
84666;SDS011;74896;42.518;23.712;2024-02-14T01:26:00;12.52;;;6.65;;
84666;SDS011;74896;42.518;23.712;2024-02-14T01:28:27;11.35;;;6.38;;
84666;SDS011;74896;42.518;23.712;2024-02-14T01:30:52;15.55;;;7.53;;
84666;SDS011;74896;42.518;23.712;2024-02-14T01:33:18;13.18;;;6.05;;
84666;SDS011;74896;42.518;23.712;2024-02-14T01:35:43;12.23;;;6.03;;
84666;SDS011;74896;42.518;23.712;2024-02-14T01:38:09;10.60;;;5.78;;
84666;SDS011;74896;42.518;23.712;2024-02-14T01:40:34;11.18;;;5.57;;
84666;SDS011;74896;42.518;23.712;2024-02-14T01:43:00;13.35;;;6.38;;
84666;SDS011;74896;42.518;23.712;2024-02-14T01:45:25;8.35;;;5.10;;
84666;SDS011;74896;42.518;23.712;2024-02-14T01:47:52;12.38;;;5.85;;
84666;SDS011;74896;42.518;23.712;2024-02-14T01:50:18;11.13;;;6.10;;
84666;SDS011;74896;42.518;23.712;2024-02-14T01:52:53;9.48;;;5.35;;
84666;SDS011;74896;42.518;23.712;2024-02-14T01:55:19;13.23;;;6.28;;
84666;SDS011;74896;42.518;23.712;2024-02-14T01:57:45;13.25;;;6.35;;
84666;SDS011;74896;42.518;23.712;2024-02-14T02:00:11;10.60;;;5.28;;
84666;SDS011;74896;42.518;23.712;2024-02-14T02:02:43;13.27;;;6.53;;
84666;SDS011;74896;42.518;23.712;2024-02-14T02:05:09;13.13;;;6.45;;
84666;SDS011;74896;42.518;23.712;2024-02-14T02:07:34;10.85;;;5.75;;
84666;SDS011;74896;42.518;23.712;2024-02-14T02:10:04;12.82;;;6.35;;
84666;SDS011;74896;42.518;23.712;2024-02-14T02:12:30;11.07;;;4.97;;
84666;SDS011;74896;42.518;23.712;2024-02-14T02:14:55;13.13;;;6.30;;
84666;SDS011;74896;42.518;23.712;2024-02-14T02:17:21;12.02;;;6.47;;
84666;SDS011;74896;42.518;23.712;2024-02-14T02:19:46;10.68;;;5.57;;
84666;SDS011;74896;42.518;23.712;2024-02-14T02:22:11;10.02;;;6.00;;
84666;SDS011;74896;42.518;23.712;2024-02-14T02:24:37;14.68;;;6.65;;
84666;SDS011;74896;42.518;23.712;2024-02-14T02:27:03;14.27;;;6.78;;
84666;SDS011;74896;42.518;23.712;2024-02-14T02:29:29;15.68;;;6.80;;
84666;SDS011;74896;42.518;23.712;2024-02-14T02:31:57;13.38;;;6.75;;
84666;SDS011;74896;42.518;23.712;2024-02-14T02:34:23;13.65;;;6.47;;
84666;SDS011;74896;42.518;23.712;2024-02-14T02:36:48;9.48;;;4.60;;
84666;SDS011;74896;42.518;23.712;2024-02-14T02:39:15;12.90;;;5.72;;
84666;SDS011;74896;42.518;23.712;2024-02-14T02:41:41;11.38;;;5.65;;
84666;SDS011;74896;42.518;23.712;2024-02-14T02:44:06;12.20;;;5.90;;
84666;SDS011;74896;42.518;23.712;2024-02-14T02:46:31;16.40;;;9.77;;
84666;SDS011;74896;42.518;23.712;2024-02-14T02:48:57;9.40;;;5.95;;
84666;SDS011;74896;42.518;23.712;2024-02-14T02:51:23;11.82;;;6.78;;
84666;SDS011;74896;42.518;23.712;2024-02-14T02:53:49;10.23;;;5.70;;
84666;SDS011;74896;42.518;23.712;2024-02-14T02:56:14;15.10;;;7.10;;
84666;SDS011;74896;42.518;23.712;2024-02-14T02:58:40;10.98;;;6.35;;
84666;SDS011;74896;42.518;23.712;2024-02-14T03:01:08;9.40;;;5.10;;
84666;SDS011;74896;42.518;23.712;2024-02-14T03:03:34;9.80;;;5.30;;
84666;SDS011;74896;42.518;23.712;2024-02-14T03:06:01;14.68;;;7.25;;
84666;SDS011;74896;42.518;23.712;2024-02-14T03:08:28;13.48;;;7.03;;
84666;SDS011;74896;42.518;23.712;2024-02-14T03:10:55;10.63;;;6.65;;
84666;SDS011;74896;42.518;23.712;2024-02-14T03:13:27;12.98;;;6.50;;
84666;SDS011;74896;42.518;23.712;2024-02-14T03:15:53;15.00;;;8.07;;
84666;SDS011;74896;42.518;23.712;2024-02-14T03:18:18;12.15;;;6.88;;
84666;SDS011;74896;42.518;23.712;2024-02-14T03:20:44;16.73;;;6.68;;
84666;SDS011;74896;42.518;23.712;2024-02-14T03:23:09;12.38;;;6.82;;
84666;SDS011;74896;42.518;23.712;2024-02-14T03:25:35;15.10;;;7.93;;
84666;SDS011;74896;42.518;23.712;2024-02-14T03:28:02;12.82;;;5.78;;
84666;SDS011;74896;42.518;23.712;2024-02-14T03:30:33;14.23;;;7.10;;
84666;SDS011;74896;42.518;23.712;2024-02-14T03:32:59;15.77;;;6.70;;
84666;SDS011;74896;42.518;23.712;2024-02-14T03:35:25;10.30;;;5.47;;
84666;SDS011;74896;42.518;23.712;2024-02-14T03:37:52;12.23;;;6.35;;
84666;SDS011;74896;42.518;23.712;2024-02-14T03:40:18;14.27;;;7.60;;
84666;SDS011;74896;42.518;23.712;2024-02-14T03:42:45;16.45;;;8.55;;
84666;SDS011;74896;42.518;23.712;2024-02-14T03:45:11;16.25;;;8.25;;
84666;SDS011;74896;42.518;23.712;2024-02-14T03:47:36;13.52;;;6.97;;
84666;SDS011;74896;42.518;23.712;2024-02-14T03:50:05;13.73;;;7.43;;
84666;SDS011;74896;42.518;23.712;2024-02-14T03:52:32;14.95;;;7.50;;
84666;SDS011;74896;42.518;23.712;2024-02-14T03:54:57;14.52;;;7.32;;
84666;SDS011;74896;42.518;23.712;2024-02-14T03:57:24;13.93;;;6.57;;
84666;SDS011;74896;42.518;23.712;2024-02-14T03:59:50;14.40;;;7.03;;
84666;SDS011;74896;42.518;23.712;2024-02-14T04:02:16;11.05;;;5.78;;
84666;SDS011;74896;42.518;23.712;2024-02-14T04:04:41;13.43;;;7.03;;
84666;SDS011;74896;42.518;23.712;2024-02-14T04:07:07;17.42;;;8.10;;
84666;SDS011;74896;42.518;23.712;2024-02-14T04:09:36;17.30;;;8.27;;
84666;SDS011;74896;42.518;23.712;2024-02-14T04:12:01;12.45;;;6.78;;
84666;SDS011;74896;42.518;23.712;2024-02-14T04:14:27;13.43;;;6.57;;
84666;SDS011;74896;42.518;23.712;2024-02-14T04:16:52;16.33;;;7.78;;
84666;SDS011;74896;42.518;23.712;2024-02-14T04:19:17;14.23;;;6.75;;
84666;SDS011;74896;42.518;23.712;2024-02-14T04:21:43;13.32;;;6.45;;
84666;SDS011;74896;42.518;23.712;2024-02-14T04:24:09;15.90;;;7.22;;
84666;SDS011;74896;42.518;23.712;2024-02-14T04:26:35;17.58;;;8.20;;
84666;SDS011;74896;42.518;23.712;2024-02-14T04:29:00;15.85;;;7.18;;
84666;SDS011;74896;42.518;23.712;2024-02-14T04:31:26;15.98;;;8.82;;
84666;SDS011;74896;42.518;23.712;2024-02-14T04:33:52;13.65;;;7.65;;
84666;SDS011;74896;42.518;23.712;2024-02-14T04:36:19;16.05;;;7.30;;
84666;SDS011;74896;42.518;23.712;2024-02-14T04:38:46;15.57;;;8.02;;
84666;SDS011;74896;42.518;23.712;2024-02-14T04:41:12;15.52;;;7.43;;
84666;SDS011;74896;42.518;23.712;2024-02-14T04:43:37;16.88;;;8.68;;
84666;SDS011;74896;42.518;23.712;2024-02-14T04:46:03;15.05;;;6.82;;
84666;SDS011;74896;42.518;23.712;2024-02-14T04:48:32;14.32;;;8.05;;
84666;SDS011;74896;42.518;23.712;2024-02-14T04:50:57;19.40;;;8.07;;
84666;SDS011;74896;42.518;23.712;2024-02-14T04:53:23;14.90;;;7.78;;
84666;SDS011;74896;42.518;23.712;2024-02-14T04:55:48;13.18;;;7.07;;
84666;SDS011;74896;42.518;23.712;2024-02-14T04:58:14;11.13;;;5.70;;
84666;SDS011;74896;42.518;23.712;2024-02-14T05:00:39;12.52;;;6.25;;
84666;SDS011;74896;42.518;23.712;2024-02-14T05:03:05;13.45;;;6.93;;
84666;SDS011;74896;42.518;23.712;2024-02-14T05:05:30;16.60;;;7.75;;
84666;SDS011;74896;42.518;23.712;2024-02-14T05:07:58;13.45;;;7.90;;
84666;SDS011;74896;42.518;23.712;2024-02-14T05:10:23;13.45;;;7.28;;
84666;SDS011;74896;42.518;23.712;2024-02-14T05:12:53;14.38;;;8.73;;
84666;SDS011;74896;42.518;23.712;2024-02-14T05:15:19;16.60;;;8.68;;
84666;SDS011;74896;42.518;23.712;2024-02-14T05:17:44;11.80;;;7.32;;
84666;SDS011;74896;42.518;23.712;2024-02-14T05:20:10;12.18;;;6.80;;
84666;SDS011;74896;42.518;23.712;2024-02-14T05:22:36;17.90;;;9.20;;
84666;SDS011;74896;42.518;23.712;2024-02-14T05:25:05;15.27;;;7.10;;
84666;SDS011;74896;42.518;23.712;2024-02-14T05:27:33;16.83;;;9.10;;
84666;SDS011;74896;42.518;23.712;2024-02-14T05:29:58;17.85;;;9.52;;
84666;SDS011;74896;42.518;23.712;2024-02-14T05:32:24;15.70;;;7.57;;
84666;SDS011;74896;42.518;23.712;2024-02-14T05:34:50;16.85;;;8.23;;
84666;SDS011;74896;42.518;23.712;2024-02-14T05:37:16;15.25;;;7.32;;
84666;SDS011;74896;42.518;23.712;2024-02-14T05:39:41;17.30;;;8.85;;
84666;SDS011;74896;42.518;23.712;2024-02-14T05:42:06;14.23;;;7.97;;
84666;SDS011;74896;42.518;23.712;2024-02-14T05:44:32;17.75;;;8.70;;
84666;SDS011;74896;42.518;23.712;2024-02-14T05:46:57;13.70;;;8.48;;
84666;SDS011;74896;42.518;23.712;2024-02-14T05:49:23;13.23;;;7.75;;
84666;SDS011;74896;42.518;23.712;2024-02-14T05:51:49;20.27;;;9.35;;
84666;SDS011;74896;42.518;23.712;2024-02-14T05:54:16;17.27;;;9.20;;
84666;SDS011;74896;42.518;23.712;2024-02-14T05:56:41;21.83;;;10.73;;
84666;SDS011;74896;42.518;23.712;2024-02-14T05:59:07;15.23;;;8.40;;
84666;SDS011;74896;42.518;23.712;2024-02-14T06:01:32;15.63;;;8.80;;
84666;SDS011;74896;42.518;23.712;2024-02-14T06:03:58;19.08;;;9.23;;
84666;SDS011;74896;42.518;23.712;2024-02-14T06:06:24;19.08;;;8.52;;
84666;SDS011;74896;42.518;23.712;2024-02-14T06:08:49;18.02;;;8.95;;
84666;SDS011;74896;42.518;23.712;2024-02-14T06:11:14;19.08;;;10.05;;
84666;SDS011;74896;42.518;23.712;2024-02-14T06:13:41;18.33;;;9.07;;
84666;SDS011;74896;42.518;23.712;2024-02-14T06:16:06;13.68;;;7.40;;
84666;SDS011;74896;42.518;23.712;2024-02-14T06:18:33;16.92;;;10.38;;
84666;SDS011;74896;42.518;23.712;2024-02-14T06:20:59;17.02;;;7.95;;
84666;SDS011;74896;42.518;23.712;2024-02-14T06:23:25;16.83;;;8.80;;
84666;SDS011;74896;42.518;23.712;2024-02-14T06:25:50;13.13;;;7.60;;
84666;SDS011;74896;42.518;23.712;2024-02-14T06:28:16;14.93;;;9.07;;
84666;SDS011;74896;42.518;23.712;2024-02-14T06:30:41;19.55;;;8.43;;
84666;SDS011;74896;42.518;23.712;2024-02-14T06:33:06;14.50;;;7.35;;
84666;SDS011;74896;42.518;23.712;2024-02-14T06:35:32;19.38;;;9.65;;
84666;SDS011;74896;42.518;23.712;2024-02-14T06:37:57;21.35;;;9.10;;
84666;SDS011;74896;42.518;23.712;2024-02-14T06:40:22;18.48;;;8.73;;
84666;SDS011;74896;42.518;23.712;2024-02-14T06:42:48;20.05;;;8.60;;
84666;SDS011;74896;42.518;23.712;2024-02-14T06:45:15;18.45;;;9.70;;
84666;SDS011;74896;42.518;23.712;2024-02-14T06:47:41;23.45;;;10.27;;
84666;SDS011;74896;42.518;23.712;2024-02-14T06:50:06;18.70;;;9.32;;
84666;SDS011;74896;42.518;23.712;2024-02-14T06:52:33;18.13;;;8.93;;
84666;SDS011;74896;42.518;23.712;2024-02-14T06:54:58;16.88;;;8.38;;
84666;SDS011;74896;42.518;23.712;2024-02-14T06:57:24;18.77;;;8.88;;
84666;SDS011;74896;42.518;23.712;2024-02-14T06:59:49;17.13;;;9.10;;
84666;SDS011;74896;42.518;23.712;2024-02-14T07:02:14;17.83;;;9.13;;
84666;SDS011;74896;42.518;23.712;2024-02-14T07:04:40;16.90;;;8.65;;
84666;SDS011;74896;42.518;23.712;2024-02-14T07:07:05;15.57;;;8.30;;
84666;SDS011;74896;42.518;23.712;2024-02-14T07:09:31;12.88;;;7.32;;
84666;SDS011;74896;42.518;23.712;2024-02-14T07:12:00;16.92;;;8.55;;
84666;SDS011;74896;42.518;23.712;2024-02-14T07:14:26;15.90;;;8.63;;
84666;SDS011;74896;42.518;23.712;2024-02-14T07:16:51;17.83;;;8.98;;
84666;SDS011;74896;42.518;23.712;2024-02-14T07:19:17;14.45;;;7.95;;
84666;SDS011;74896;42.518;23.712;2024-02-14T07:21:42;17.00;;;8.98;;
84666;SDS011;74896;42.518;23.712;2024-02-14T07:24:08;17.10;;;9.48;;
84666;SDS011;74896;42.518;23.712;2024-02-14T07:26:34;19.40;;;8.38;;
84666;SDS011;74896;42.518;23.712;2024-02-14T07:28:59;16.60;;;9.10;;
84666;SDS011;74896;42.518;23.712;2024-02-14T07:31:27;15.18;;;8.60;;
84666;SDS011;74896;42.518;23.712;2024-02-14T07:33:55;15.27;;;8.40;;
84666;SDS011;74896;42.518;23.712;2024-02-14T07:36:20;16.55;;;8.82;;
84666;SDS011;74896;42.518;23.712;2024-02-14T07:38:46;18.08;;;8.32;;
84666;SDS011;74896;42.518;23.712;2024-02-14T07:41:12;15.43;;;7.75;;
84666;SDS011;74896;42.518;23.712;2024-02-14T07:43:37;13.48;;;7.40;;
84666;SDS011;74896;42.518;23.712;2024-02-14T07:46:02;14.63;;;8.18;;
84666;SDS011;74896;42.518;23.712;2024-02-14T07:48:30;17.48;;;7.75;;
84666;SDS011;74896;42.518;23.712;2024-02-14T07:50:56;15.90;;;9.40;;
84666;SDS011;74896;42.518;23.712;2024-02-14T07:53:21;15.45;;;7.90;;
84666;SDS011;74896;42.518;23.712;2024-02-14T07:55:47;16.35;;;7.53;;
84666;SDS011;74896;42.518;23.712;2024-02-14T07:58:12;11.90;;;7.65;;
84666;SDS011;74896;42.518;23.712;2024-02-14T08:00:37;16.77;;;8.40;;
84666;SDS011;74896;42.518;23.712;2024-02-14T08:03:03;12.80;;;7.53;;
84666;SDS011;74896;42.518;23.712;2024-02-14T08:05:30;11.13;;;6.95;;
84666;SDS011;74896;42.518;23.712;2024-02-14T08:07:56;11.82;;;7.05;;
84666;SDS011;74896;42.518;23.712;2024-02-14T08:10:21;13.32;;;7.22;;
84666;SDS011;74896;42.518;23.712;2024-02-14T08:12:47;13.13;;;6.03;;
84666;SDS011;74896;42.518;23.712;2024-02-14T08:15:12;13.63;;;8.20;;
84666;SDS011;74896;42.518;23.712;2024-02-14T08:17:38;11.00;;;6.22;;
84666;SDS011;74896;42.518;23.712;2024-02-14T08:20:04;14.93;;;7.22;;
84666;SDS011;74896;42.518;23.712;2024-02-14T08:22:30;12.90;;;7.07;;
84666;SDS011;74896;42.518;23.712;2024-02-14T08:24:55;12.85;;;6.38;;
84666;SDS011;74896;42.518;23.712;2024-02-14T08:27:21;13.73;;;8.00;;
84666;SDS011;74896;42.518;23.712;2024-02-14T08:29:47;10.73;;;7.10;;
84666;SDS011;74896;42.518;23.712;2024-02-14T08:32:12;11.85;;;7.35;;
84666;SDS011;74896;42.518;23.712;2024-02-14T08:34:38;10.88;;;5.90;;
84666;SDS011;74896;42.518;23.712;2024-02-14T08:37:03;9.80;;;5.70;;
84666;SDS011;74896;42.518;23.712;2024-02-14T08:39:29;12.48;;;6.80;;
84666;SDS011;74896;42.518;23.712;2024-02-14T08:41:54;11.45;;;5.32;;
84666;SDS011;74896;42.518;23.712;2024-02-14T08:44:19;9.30;;;5.88;;
84666;SDS011;74896;42.518;23.712;2024-02-14T08:46:45;15.50;;;7.55;;
84666;SDS011;74896;42.518;23.712;2024-02-14T08:49:13;11.38;;;6.47;;
84666;SDS011;74896;42.518;23.712;2024-02-14T08:51:38;11.50;;;6.50;;
84666;SDS011;74896;42.518;23.712;2024-02-14T08:54:04;13.00;;;7.15;;
84666;SDS011;74896;42.518;23.712;2024-02-14T08:56:34;10.52;;;6.63;;
84666;SDS011;74896;42.518;23.712;2024-02-14T08:59:00;14.90;;;7.68;;
84666;SDS011;74896;42.518;23.712;2024-02-14T09:01:27;9.38;;;5.55;;
84666;SDS011;74896;42.518;23.712;2024-02-14T09:03:53;8.18;;;5.60;;
84666;SDS011;74896;42.518;23.712;2024-02-14T09:06:19;11.48;;;6.32;;
84666;SDS011;74896;42.518;23.712;2024-02-14T09:08:44;12.05;;;7.35;;
84666;SDS011;74896;42.518;23.712;2024-02-14T09:11:09;12.57;;;6.75;;
84666;SDS011;74896;42.518;23.712;2024-02-14T09:13:35;7.10;;;5.03;;
84666;SDS011;74896;42.518;23.712;2024-02-14T09:16:00;11.88;;;5.78;;
84666;SDS011;74896;42.518;23.712;2024-02-14T09:18:26;12.25;;;6.90;;
84666;SDS011;74896;42.518;23.712;2024-02-14T09:20:52;8.43;;;4.63;;
84666;SDS011;74896;42.518;23.712;2024-02-14T09:23:17;12.68;;;7.55;;
84666;SDS011;74896;42.518;23.712;2024-02-14T09:25:47;13.30;;;7.18;;
84666;SDS011;74896;42.518;23.712;2024-02-14T09:28:13;12.75;;;6.13;;
84666;SDS011;74896;42.518;23.712;2024-02-14T09:30:40;10.93;;;7.60;;
84666;SDS011;74896;42.518;23.712;2024-02-14T09:33:06;16.58;;;8.27;;
84666;SDS011;74896;42.518;23.712;2024-02-14T09:35:31;12.18;;;6.90;;
84666;SDS011;74896;42.518;23.712;2024-02-14T09:37:56;10.80;;;7.43;;
84666;SDS011;74896;42.518;23.712;2024-02-14T09:40:22;11.15;;;6.80;;
84666;SDS011;74896;42.518;23.712;2024-02-14T09:42:57;12.45;;;7.55;;
84666;SDS011;74896;42.518;23.712;2024-02-14T09:45:28;9.68;;;7.28;;
84666;SDS011;74896;42.518;23.712;2024-02-14T09:47:55;9.38;;;5.55;;
84666;SDS011;74896;42.518;23.712;2024-02-14T09:50:22;13.20;;;7.35;;
84666;SDS011;74896;42.518;23.712;2024-02-14T09:52:49;12.50;;;7.00;;
84666;SDS011;74896;42.518;23.712;2024-02-14T09:55:15;12.18;;;6.28;;
84666;SDS011;74896;42.518;23.712;2024-02-14T09:57:41;9.93;;;5.88;;
84666;SDS011;74896;42.518;23.712;2024-02-14T10:00:11;9.65;;;5.88;;
84666;SDS011;74896;42.518;23.712;2024-02-14T10:02:39;12.80;;;6.38;;
84666;SDS011;74896;42.518;23.712;2024-02-14T10:05:05;9.30;;;6.43;;
84666;SDS011;74896;42.518;23.712;2024-02-14T10:07:39;13.50;;;6.20;;
84666;SDS011;74896;42.518;23.712;2024-02-14T10:10:08;10.68;;;7.22;;
84666;SDS011;74896;42.518;23.712;2024-02-14T10:12:34;9.77;;;6.15;;
84666;SDS011;74896;42.518;23.712;2024-02-14T10:15:00;15.90;;;7.03;;
84666;SDS011;74896;42.518;23.712;2024-02-14T10:17:27;16.30;;;6.70;;
84666;SDS011;74896;42.518;23.712;2024-02-14T10:20:01;8.65;;;4.78;;
84666;SDS011;74896;42.518;23.712;2024-02-14T10:22:37;12.52;;;6.03;;
84666;SDS011;74896;42.518;23.712;2024-02-14T10:25:03;12.88;;;7.13;;
84666;SDS011;74896;42.518;23.712;2024-02-14T10:27:34;10.48;;;6.80;;
84666;SDS011;74896;42.518;23.712;2024-02-14T10:30:02;12.07;;;6.88;;
84666;SDS011;74896;42.518;23.712;2024-02-14T10:32:30;13.18;;;7.60;;
84666;SDS011;74896;42.518;23.712;2024-02-14T10:34:55;15.60;;;6.60;;
84666;SDS011;74896;42.518;23.712;2024-02-14T10:37:21;13.23;;;6.05;;
84666;SDS011;74896;42.518;23.712;2024-02-14T10:39:48;11.10;;;6.15;;
84666;SDS011;74896;42.518;23.712;2024-02-14T10:42:17;11.60;;;6.45;;
84666;SDS011;74896;42.518;23.712;2024-02-14T10:44:44;12.30;;;6.82;;
84666;SDS011;74896;42.518;23.712;2024-02-14T10:47:10;10.20;;;5.72;;
84666;SDS011;74896;42.518;23.712;2024-02-14T10:49:39;8.85;;;5.10;;
84666;SDS011;74896;42.518;23.712;2024-02-14T10:52:07;10.13;;;6.18;;
84666;SDS011;74896;42.518;23.712;2024-02-14T10:54:35;8.95;;;5.93;;
84666;SDS011;74896;42.518;23.712;2024-02-14T10:57:03;13.20;;;6.15;;
84666;SDS011;74896;42.518;23.712;2024-02-14T10:59:38;10.05;;;6.50;;
84666;SDS011;74896;42.518;23.712;2024-02-14T11:02:09;12.30;;;6.25;;
84666;SDS011;74896;42.518;23.712;2024-02-14T11:04:35;8.18;;;4.43;;
84666;SDS011;74896;42.518;23.712;2024-02-14T11:07:02;11.27;;;6.50;;
84666;SDS011;74896;42.518;23.712;2024-02-14T11:09:38;10.95;;;7.05;;
84666;SDS011;74896;42.518;23.712;2024-02-14T11:12:08;11.00;;;6.00;;
84666;SDS011;74896;42.518;23.712;2024-02-14T11:14:35;11.45;;;5.85;;
84666;SDS011;74896;42.518;23.712;2024-02-14T11:17:02;13.00;;;6.75;;
84666;SDS011;74896;42.518;23.712;2024-02-14T11:19:31;11.35;;;6.68;;
84666;SDS011;74896;42.518;23.712;2024-02-14T11:21:58;9.82;;;5.43;;
84666;SDS011;74896;42.518;23.712;2024-02-14T11:24:27;10.35;;;5.55;;
84666;SDS011;74896;42.518;23.712;2024-02-14T11:26:54;10.75;;;5.75;;
84666;SDS011;74896;42.518;23.712;2024-02-14T11:29:21;14.38;;;7.22;;
84666;SDS011;74896;42.518;23.712;2024-02-14T11:31:59;12.82;;;6.22;;
84666;SDS011;74896;42.518;23.712;2024-02-14T11:34:25;8.48;;;4.82;;
84666;SDS011;74896;42.518;23.712;2024-02-14T11:36:51;11.35;;;6.30;;
84666;SDS011;74896;42.518;23.712;2024-02-14T11:39:17;9.63;;;5.22;;
84666;SDS011;74896;42.518;23.712;2024-02-14T11:41:42;12.57;;;6.30;;
84666;SDS011;74896;42.518;23.712;2024-02-14T11:44:08;13.88;;;7.47;;
84666;SDS011;74896;42.518;23.712;2024-02-14T11:46:34;9.35;;;5.40;;
84666;SDS011;74896;42.518;23.712;2024-02-14T11:49:04;11.95;;;7.10;;
84666;SDS011;74896;42.518;23.712;2024-02-14T11:51:31;16.05;;;7.15;;
84666;SDS011;74896;42.518;23.712;2024-02-14T11:53:58;13.52;;;7.10;;
84666;SDS011;74896;42.518;23.712;2024-02-14T11:56:32;12.43;;;6.82;;
84666;SDS011;74896;42.518;23.712;2024-02-14T11:59:01;11.05;;;5.50;;
84666;SDS011;74896;42.518;23.712;2024-02-14T12:04:00;12.57;;;7.13;;
84666;SDS011;74896;42.518;23.712;2024-02-14T12:06:29;11.15;;;5.38;;
84666;SDS011;74896;42.518;23.712;2024-02-14T12:08:57;11.05;;;6.53;;
84666;SDS011;74896;42.518;23.712;2024-02-14T12:11:26;12.38;;;6.15;;
84666;SDS011;74896;42.518;23.712;2024-02-14T12:13:53;9.27;;;5.50;;
84666;SDS011;74896;42.518;23.712;2024-02-14T12:16:21;12.30;;;6.28;;
84666;SDS011;74896;42.518;23.712;2024-02-14T12:18:46;10.38;;;5.72;;
84666;SDS011;74896;42.518;23.712;2024-02-14T12:21:12;13.30;;;6.32;;
84666;SDS011;74896;42.518;23.712;2024-02-14T12:23:38;12.10;;;6.28;;
84666;SDS011;74896;42.518;23.712;2024-02-14T12:26:03;9.48;;;5.10;;
84666;SDS011;74896;42.518;23.712;2024-02-14T12:28:30;10.40;;;5.82;;
84666;SDS011;74896;42.518;23.712;2024-02-14T12:30:56;10.30;;;5.32;;
84666;SDS011;74896;42.518;23.712;2024-02-14T12:33:23;10.73;;;5.57;;
84666;SDS011;74896;42.518;23.712;2024-02-14T12:35:49;10.15;;;5.97;;
84666;SDS011;74896;42.518;23.712;2024-02-14T12:38:16;9.35;;;5.22;;
84666;SDS011;74896;42.518;23.712;2024-02-14T12:40:43;11.02;;;5.38;;
84666;SDS011;74896;42.518;23.712;2024-02-14T12:43:12;10.85;;;5.60;;
84666;SDS011;74896;42.518;23.712;2024-02-14T12:45:39;8.75;;;5.18;;
84666;SDS011;74896;42.518;23.712;2024-02-14T12:48:05;10.68;;;6.05;;
84666;SDS011;74896;42.518;23.712;2024-02-14T12:50:33;8.70;;;5.00;;
84666;SDS011;74896;42.518;23.712;2024-02-14T12:52:59;10.20;;;5.63;;
84666;SDS011;74896;42.518;23.712;2024-02-14T12:55:25;10.43;;;5.05;;
84666;SDS011;74896;42.518;23.712;2024-02-14T12:57:51;7.38;;;4.30;;
84666;SDS011;74896;42.518;23.712;2024-02-14T13:00:17;10.07;;;5.75;;
84666;SDS011;74896;42.518;23.712;2024-02-14T13:02:43;11.60;;;5.82;;
84666;SDS011;74896;42.518;23.712;2024-02-14T13:05:09;11.55;;;6.22;;
84666;SDS011;74896;42.518;23.712;2024-02-14T13:07:34;10.70;;;5.10;;
84666;SDS011;74896;42.518;23.712;2024-02-14T13:10:00;7.57;;;5.15;;
84666;SDS011;74896;42.518;23.712;2024-02-14T13:12:26;8.98;;;5.25;;
84666;SDS011;74896;42.518;23.712;2024-02-14T13:14:51;7.85;;;5.10;;
84666;SDS011;74896;42.518;23.712;2024-02-14T13:17:17;11.68;;;6.00;;
84666;SDS011;74896;42.518;23.712;2024-02-14T13:19:42;7.75;;;4.35;;
84666;SDS011;74896;42.518;23.712;2024-02-14T13:22:08;7.93;;;4.97;;
84666;SDS011;74896;42.518;23.712;2024-02-14T13:24:34;8.23;;;4.97;;
84666;SDS011;74896;42.518;23.712;2024-02-14T13:26:59;8.07;;;4.60;;
84666;SDS011;74896;42.518;23.712;2024-02-14T13:29:25;10.57;;;6.07;;
84666;SDS011;74896;42.518;23.712;2024-02-14T13:31:50;9.02;;;5.40;;
84666;SDS011;74896;42.518;23.712;2024-02-14T13:34:16;8.57;;;5.97;;
84666;SDS011;74896;42.518;23.712;2024-02-14T13:36:43;9.50;;;5.25;;
84666;SDS011;74896;42.518;23.712;2024-02-14T13:39:09;7.60;;;4.22;;
84666;SDS011;74896;42.518;23.712;2024-02-14T13:41:35;7.30;;;4.78;;
84666;SDS011;74896;42.518;23.712;2024-02-14T13:44:02;9.88;;;5.05;;
84666;SDS011;74896;42.518;23.712;2024-02-14T13:46:28;8.35;;;4.55;;
84666;SDS011;74896;42.518;23.712;2024-02-14T13:48:54;11.48;;;5.55;;
84666;SDS011;74896;42.518;23.712;2024-02-14T13:51:19;10.10;;;5.22;;
84666;SDS011;74896;42.518;23.712;2024-02-14T13:53:45;7.57;;;4.43;;
84666;SDS011;74896;42.518;23.712;2024-02-14T13:56:11;9.70;;;6.10;;
84666;SDS011;74896;42.518;23.712;2024-02-14T13:58:36;9.13;;;5.05;;
84666;SDS011;74896;42.518;23.712;2024-02-14T14:01:03;9.07;;;4.88;;
84666;SDS011;74896;42.518;23.712;2024-02-14T14:03:29;9.13;;;4.82;;
84666;SDS011;74896;42.518;23.712;2024-02-14T14:05:55;12.20;;;6.68;;
84666;SDS011;74896;42.518;23.712;2024-02-14T14:08:22;8.65;;;4.68;;
84666;SDS011;74896;42.518;23.712;2024-02-14T14:10:48;7.78;;;5.13;;
84666;SDS011;74896;42.518;23.712;2024-02-14T14:13:13;10.95;;;5.82;;
84666;SDS011;74896;42.518;23.712;2024-02-14T14:15:39;8.27;;;4.65;;
84666;SDS011;74896;42.518;23.712;2024-02-14T14:18:05;12.77;;;5.30;;
84666;SDS011;74896;42.518;23.712;2024-02-14T14:20:33;9.43;;;4.95;;